logo
Rechercher aéroport 
image banner adimage banner adimage banner ad
image banner ad

1CL6 - Lake Park Helistop

Situé à Sacramento, United States

ICAO - 1CL6, IATA -

Données fournies par Airmate  

Information générale

Coordonnées: N38°32'52" W121°22'38"
Élévation : 45 feet MSL.
Variation magnétique : 16° East
Voir autres Aéroports à California

Données opérationnelles

Special qualification required
Heure actuelle UTC:
Heure actuelle locale:
Météo à : KMHR - Sacramento Mather ( 7 km )
METAR: KMHR 130435Z AUTO 18006KT 10SM CLR 21/11 A2982 RMK A01
TAF: KMHR 252325Z 2600/2624 VRB05KT P6SM SKC
Voir NOTAMs / SUP AIP / TFR affectant cet aéroport [VIEW]
Fréquences de communication: [VIEW]

Pistes:

Coordonnées de l'aéroport

Adresse: Sacramento United States

Vue satellite de 1CL6